createdAt,value
2023-03-04T00:00:49.337Z,9.443686
2023-03-04T00:01:49.409Z,9.443744
2023-03-04T00:02:49.286Z,9.443714
2023-03-04T00:03:49.252Z,9.443650
2023-03-04T00:04:49.133Z,9.443540
2023-03-04T00:05:49.247Z,9.443689
2023-03-04T00:06:49.235Z,9.443693
2023-03-04T00:07:49.347Z,9.443707
2023-03-04T00:08:49.253Z,9.443840
2023-03-04T00:09:49.261Z,9.443772
2023-03-04T00:10:49.190Z,9.443784
2023-03-04T00:11:50.103Z,9.443659
2023-03-04T00:12:49.154Z,9.443701
2023-03-04T00:13:49.226Z,9.443602
2023-03-04T00:14:49.226Z,9.443624
2023-03-04T00:15:49.231Z,9.443616
2023-03-04T00:16:49.201Z,9.443635
2023-03-04T00:17:49.171Z,9.443756
2023-03-04T00:18:49.199Z,9.443744
2023-03-04T00:19:49.085Z,9.443800
2023-03-04T00:20:50.030Z,9.443762
2023-03-04T00:21:49.220Z,9.443839
2023-03-04T00:22:49.191Z,9.443769
2023-03-04T00:23:49.166Z,9.443628
2023-03-04T00:24:49.128Z,9.443627
2023-03-04T00:25:49.195Z,9.443604
2023-03-04T00:26:49.175Z,9.443782
2023-03-04T00:27:49.164Z,9.443674
2023-03-04T00:31:58.662Z,9.443564
2023-03-04T00:32:58.381Z,9.443744
2023-03-04T00:33:58.137Z,9.443717
2023-03-04T00:34:58.220Z,9.443629
2023-03-04T00:35:58.266Z,9.443648
2023-03-04T00:36:58.343Z,9.443807
2023-03-04T00:42:54.689Z,9.443859
2023-03-04T00:43:54.650Z,9.443575
2023-03-04T00:44:54.319Z,9.443783
2023-03-04T00:45:54.243Z,9.443429
2023-03-04T00:46:54.220Z,9.443187
2023-03-04T00:47:54.352Z,9.443309
2023-03-04T00:48:54.267Z,9.443132
2023-03-04T00:57:29.286Z,9.443677
2023-03-04T00:58:28.449Z,9.443589
2023-03-04T01:00:03.762Z,9.443626
2023-03-04T01:00:28.714Z,9.443665
2023-03-04T01:20:59.477Z,9.443719
2023-03-04T01:21:31.457Z,9.443729
2023-03-04T01:22:31.732Z,9.443703
2023-03-04T01:23:31.344Z,9.443747
2023-03-04T01:24:31.349Z,9.443688
2023-03-04T01:25:31.384Z,9.443778
2023-03-04T01:26:31.242Z,9.443695
2023-03-04T01:27:31.416Z,9.443722
2023-03-04T01:29:08.795Z,9.443759
2023-03-04T01:37:39.254Z,9.443724
2023-03-04T01:38:39.752Z,9.443724
2023-03-04T01:39:39.157Z,9.443886
2023-03-04T01:40:39.165Z,9.443760
2023-03-04T01:41:39.197Z,9.443604
2023-03-04T01:42:39.154Z,9.443657
2023-03-04T01:43:39.251Z,9.443561
2023-03-04T01:44:39.181Z,9.443588
2023-03-04T01:45:40.229Z,9.443682
2023-03-04T01:46:40.152Z,9.443581
2023-03-04T01:47:39.678Z,9.443661
2023-03-04T01:48:39.158Z,9.443612
2023-03-04T01:49:39.137Z,9.443618
2023-03-04T01:50:39.151Z,9.443618
2023-03-04T01:51:38.994Z,9.443616
2023-03-04T01:58:14.231Z,9.443748
2023-03-04T02:02:17.812Z,9.443722
2023-03-04T02:03:17.503Z,9.443708
2023-03-04T02:07:47.210Z,9.443640
2023-03-04T02:09:25.402Z,9.443697
2023-03-04T02:09:47.115Z,9.443706
2023-03-04T02:10:47.208Z,9.443700
2023-03-04T02:11:46.965Z,9.443738
2023-03-04T02:12:47.756Z,9.443682
2023-03-04T02:13:47.206Z,9.443723
2023-03-04T02:14:47.011Z,9.443731
2023-03-04T02:16:22.297Z,9.443704
2023-03-04T02:16:46.908Z,9.443688
2023-03-04T02:17:46.976Z,9.443657
2023-03-04T02:18:46.854Z,9.443685
2023-03-04T02:19:47.762Z,9.443710
2023-03-04T02:20:46.872Z,9.443739
2023-03-04T02:21:46.964Z,9.443723
2023-03-04T02:22:47.211Z,9.443693
2023-03-04T02:23:46.888Z,9.443705
2023-03-04T02:24:46.910Z,9.443718
2023-03-04T02:25:46.870Z,9.443682
2023-03-04T02:29:56.279Z,9.443748
2023-03-04T02:30:56.132Z,9.443819
2023-03-04T02:31:55.906Z,9.443660
2023-03-04T02:32:55.885Z,9.443602
2023-03-04T02:33:55.893Z,9.443636
2023-03-04T02:34:55.867Z,9.443623
2023-03-04T02:35:55.873Z,9.443605
2023-03-04T02:36:55.953Z,9.443686
2023-03-04T02:37:55.918Z,9.443703
2023-03-04T02:38:55.942Z,9.443623
2023-03-04T02:39:55.937Z,9.443600
2023-03-04T02:40:55.913Z,9.443572
2023-03-04T02:41:55.888Z,9.443555
2023-03-04T02:42:55.958Z,9.443517
2023-03-04T02:43:55.891Z,9.443611
2023-03-04T02:45:31.127Z,9.443609
2023-03-04T02:45:56.428Z,9.443604
2023-03-04T02:46:56.218Z,9.443548
2023-03-04T02:47:55.826Z,9.443500
2023-03-04T02:48:55.796Z,9.443545
2023-03-04T02:49:55.767Z,9.443677
2023-03-04T02:50:55.990Z,9.443722
2023-03-04T02:51:55.909Z,9.443659
2023-03-04T02:52:55.846Z,9.443714
2023-03-04T02:53:55.771Z,9.443598
2023-03-04T02:54:55.808Z,9.443442
2023-03-04T02:59:23.393Z,9.443913
2023-03-04T03:00:23.079Z,9.443727
2023-03-04T03:01:23.093Z,9.443709
2023-03-04T03:02:22.898Z,9.443551
2023-03-04T03:03:22.972Z,9.443633
2023-03-04T03:04:22.904Z,9.443550
2023-03-04T03:05:22.970Z,9.443502
2023-03-04T03:06:22.869Z,9.443648
2023-03-04T03:07:22.934Z,9.443666
2023-03-04T03:08:22.955Z,9.443622
2023-03-04T03:09:22.914Z,9.443542
2023-03-04T03:10:22.899Z,9.443510
2023-03-04T03:11:22.909Z,9.443427
2023-03-04T03:12:22.975Z,9.443470
2023-03-04T03:13:22.860Z,9.443630
2023-03-04T03:14:22.906Z,9.443587
2023-03-04T03:15:22.835Z,9.443572
2023-03-04T03:16:23.033Z,9.443526
2023-03-04T03:17:22.888Z,9.443662
2023-03-04T03:18:22.849Z,9.443600
2023-03-04T03:19:22.917Z,9.443669
2023-03-04T03:20:22.818Z,9.443586
2023-03-04T03:21:57.569Z,9.443650
2023-03-04T03:23:02.337Z,9.443645
2023-03-04T03:24:02.027Z,9.443609
2023-03-04T03:24:23.899Z,9.443606
2023-03-04T03:29:17.054Z,9.443647
2023-03-04T03:30:16.317Z,9.443551
2023-03-04T03:31:16.184Z,9.443598
2023-03-04T03:32:16.309Z,9.443631
2023-03-04T03:33:16.142Z,9.443655
2023-03-04T03:34:16.156Z,9.443704
2023-03-04T03:35:16.227Z,9.443672
2023-03-04T03:36:16.250Z,9.443666
2023-03-04T03:37:53.600Z,9.443651
2023-03-04T03:41:18.242Z,9.443718
2023-03-04T03:42:18.665Z,9.443712
2023-03-04T03:43:53.066Z,9.443707
2023-03-04T03:44:53.775Z,9.443688
2023-03-04T03:45:47.416Z,9.443701
2023-03-04T03:46:18.530Z,9.443691
2023-03-04T03:52:26.380Z,9.443677
2023-03-04T03:59:25.521Z,9.443723
2023-03-04T04:02:55.624Z,9.443707
2023-03-04T04:03:55.364Z,9.443655
2023-03-04T04:04:55.063Z,9.443580
2023-03-04T04:05:55.107Z,9.443611
2023-03-04T04:06:55.137Z,9.443533
2023-03-04T04:11:14.009Z,9.443418
2023-03-04T04:12:13.881Z,9.443793
2023-03-04T04:13:13.813Z,9.443730
2023-03-04T04:14:13.786Z,9.443518
2023-03-04T04:15:13.893Z,9.443451
2023-03-04T04:16:13.812Z,9.443598
2023-03-04T04:17:13.889Z,9.443512
2023-03-04T04:18:13.771Z,9.443554
2023-03-04T04:19:13.773Z,9.443619
2023-03-04T04:20:13.799Z,9.443686
2023-03-04T04:21:13.825Z,9.443660
2023-03-04T04:22:13.863Z,9.443489
2023-03-04T04:23:13.895Z,9.443670
2023-03-04T04:24:13.943Z,9.443792
2023-03-04T04:25:13.838Z,9.443810
2023-03-04T04:26:13.664Z,9.443992
2023-03-04T04:27:13.708Z,9.443842
2023-03-04T04:28:13.724Z,9.443623
2023-03-04T04:29:13.690Z,9.443463
2023-03-04T04:30:13.788Z,9.443461
2023-03-04T04:31:13.783Z,9.443563
2023-03-04T04:32:13.785Z,9.443640
2023-03-04T04:33:52.434Z,9.443727
2023-03-04T04:34:13.963Z,9.443607
2023-03-04T04:35:13.788Z,9.443673
2023-03-04T04:36:49.973Z,9.443697
2023-03-04T04:41:00.229Z,9.443642
2023-03-04T04:41:25.637Z,9.443692
2023-03-04T04:43:04.225Z,9.443763
2023-03-04T04:46:32.093Z,9.443842
2023-03-04T04:47:32.260Z,9.443754
2023-03-04T04:48:32.046Z,9.443749
2023-03-04T04:53:04.151Z,9.443735
2023-03-04T04:53:34.816Z,9.443715
2023-03-04T05:02:46.887Z,9.443563
2023-03-04T05:04:23.875Z,9.443536
2023-03-04T05:04:46.921Z,9.443567
2023-03-04T05:05:46.088Z,9.443482
2023-03-04T05:06:46.220Z,9.443681
2023-03-04T05:08:20.228Z,9.443712
2023-03-04T05:16:14.707Z,9.443697
2023-03-04T05:24:26.413Z,9.443688
2023-03-04T05:24:49.890Z,9.443729
2023-03-04T05:26:25.341Z,9.443714
2023-03-04T05:26:49.856Z,9.443604
2023-03-04T05:30:59.633Z,9.443715
2023-03-04T05:31:58.905Z,9.443705
2023-03-04T05:36:45.366Z,9.443720
2023-03-04T05:37:10.096Z,9.443731
2023-03-04T05:38:10.548Z,9.443707
2023-03-04T05:39:11.573Z,9.443721
2023-03-04T05:40:11.460Z,9.443699
2023-03-04T05:41:14.803Z,9.443695
2023-03-04T05:42:14.795Z,9.443730
2023-03-04T05:43:10.480Z,9.443711
2023-03-04T05:44:12.550Z,9.443727
2023-03-04T05:45:13.753Z,9.443746
2023-03-04T05:46:11.484Z,9.443757
2023-03-04T05:47:10.273Z,9.443789
2023-03-04T05:48:10.722Z,9.443771
2023-03-04T05:49:12.041Z,9.443768
2023-03-04T05:50:12.894Z,9.443790
2023-03-04T05:51:11.372Z,9.443779
2023-03-04T05:52:10.307Z,9.443811
2023-03-04T05:53:13.432Z,9.443795
2023-03-04T05:54:10.838Z,9.443817
2023-03-04T05:55:09.925Z,9.443788
2023-03-04T05:56:09.695Z,9.443755
2023-03-04T05:57:10.289Z,9.443623
2023-03-04T05:58:09.589Z,9.443783
2023-03-04T05:59:09.694Z,9.443853
2023-03-04T06:00:09.809Z,9.443833
2023-03-04T06:01:09.617Z,9.443835
2023-03-04T06:02:09.749Z,9.443811
2023-03-04T06:03:09.766Z,9.443932
2023-03-04T06:04:09.852Z,9.444010
2023-03-04T06:05:10.915Z,9.443977
2023-03-04T06:06:10.546Z,9.443942
2023-03-04T06:07:09.179Z,9.443835
2023-03-04T06:11:07.508Z,9.443662
2023-03-04T06:12:07.503Z,9.443662
2023-03-04T06:13:07.493Z,9.443943
2023-03-04T06:14:07.546Z,9.443762
2023-03-04T06:15:07.489Z,9.443683
2023-03-04T06:16:07.491Z,9.443711
2023-03-04T06:17:07.487Z,9.443730
2023-03-04T06:18:07.512Z,9.443750
2023-03-04T06:19:07.484Z,9.443821
2023-03-04T06:20:07.461Z,9.443766
2023-03-04T06:21:07.449Z,9.443950
2023-03-04T06:22:08.449Z,9.443962
2023-03-04T06:23:07.448Z,9.443432
2023-03-04T06:24:07.473Z,9.443594
2023-03-04T06:25:07.427Z,9.443615
2023-03-04T06:26:07.415Z,9.443776
2023-03-04T06:27:07.414Z,9.443590
2023-03-04T06:28:07.414Z,9.443855
2023-03-04T06:29:07.412Z,9.443862
2023-03-04T06:30:07.413Z,9.443810
2023-03-04T06:31:07.425Z,9.443790
2023-03-04T06:32:07.488Z,9.443748
2023-03-04T06:33:07.378Z,9.443870
2023-03-04T06:34:07.375Z,9.443800
2023-03-04T06:35:07.366Z,9.443847
2023-03-04T06:36:07.355Z,9.443732
2023-03-04T06:37:07.349Z,9.443705
2023-03-04T06:38:07.375Z,9.443724
2023-03-04T06:39:07.334Z,9.443704
2023-03-04T06:40:07.349Z,9.443722
2023-03-04T06:41:07.344Z,9.443753
2023-03-04T06:42:07.319Z,9.443785
2023-03-04T06:43:07.309Z,9.443782
2023-03-04T06:44:07.304Z,9.443788
2023-03-04T06:45:07.299Z,9.443658
2023-03-04T06:46:07.305Z,9.443723
2023-03-04T06:47:07.287Z,9.443722
2023-03-04T06:48:07.280Z,9.443717
2023-03-04T06:49:07.274Z,9.443736
2023-03-04T06:50:07.280Z,9.443746
2023-03-04T06:51:07.266Z,9.443692
2023-03-04T06:52:08.053Z,9.443704
2023-03-04T06:53:07.282Z,9.443746
2023-03-04T06:54:07.247Z,9.443760
2023-03-04T06:55:07.242Z,9.443776
2023-03-04T06:56:07.240Z,9.443728
2023-03-04T06:57:07.223Z,9.443755
2023-03-04T06:58:07.228Z,9.443596
2023-03-04T06:59:07.211Z,9.443520
2023-03-04T07:00:07.225Z,9.443658
2023-03-04T07:01:07.242Z,9.443692
2023-03-04T07:02:07.197Z,9.443604
2023-03-04T07:03:07.191Z,9.443785
2023-03-04T07:04:07.223Z,9.443679
2023-03-04T07:05:07.163Z,9.443654
2023-03-04T07:06:07.168Z,9.443685
2023-03-04T07:07:07.177Z,9.443723
2023-03-04T07:08:07.157Z,9.443786
2023-03-04T07:09:07.152Z,9.443752
2023-03-04T07:10:07.141Z,9.443747
2023-03-04T07:11:07.156Z,9.443647
2023-03-04T07:12:07.129Z,9.443586
2023-03-04T07:13:07.135Z,9.443564
2023-03-04T07:14:07.123Z,9.443588
2023-03-04T07:15:07.103Z,9.443661
2023-03-04T07:16:07.169Z,9.443690
2023-03-04T07:17:07.102Z,9.443731
2023-03-04T07:18:07.116Z,9.443710
2023-03-04T07:19:07.080Z,9.443683
2023-03-04T07:20:07.097Z,9.443755
2023-03-04T07:21:07.077Z,9.443715
2023-03-04T07:22:07.055Z,9.443706
2023-03-04T07:23:07.069Z,9.443681
2023-03-04T07:24:07.081Z,9.443710
2023-03-04T07:25:07.036Z,9.443697
2023-03-04T07:26:07.049Z,9.443752
2023-03-04T07:27:07.033Z,9.443708
2023-03-04T07:28:07.058Z,9.443730
2023-03-04T07:29:07.023Z,9.443706
2023-03-04T07:30:07.029Z,9.443700
2023-03-04T07:31:07.021Z,9.443679
2023-03-04T07:32:07.181Z,9.443630
2023-03-04T07:33:07.026Z,9.443682
2023-03-04T07:34:06.999Z,9.443618
2023-03-04T07:35:07.014Z,9.443673
2023-03-04T07:36:06.980Z,9.443639
2023-03-04T07:37:06.965Z,9.443708
2023-03-04T07:38:06.966Z,9.443675
2023-03-04T07:39:06.974Z,9.443682
2023-03-04T07:40:06.989Z,9.443613
2023-03-04T07:41:06.979Z,9.443587
2023-03-04T07:42:06.939Z,9.443650
2023-03-04T07:43:06.940Z,9.443666
2023-03-04T07:44:06.934Z,9.443613
2023-03-04T07:45:06.945Z,9.443643
2023-03-04T07:46:06.952Z,9.443673
2023-03-04T07:47:06.937Z,9.443619
2023-03-04T07:48:06.894Z,9.443613
2023-03-04T07:49:06.896Z,9.443546
2023-03-04T07:50:06.901Z,9.443624
2023-03-04T07:51:06.904Z,9.443674
2023-03-04T07:52:06.886Z,9.443547
2023-03-04T07:53:06.859Z,9.443542
2023-03-04T07:54:06.865Z,9.443601
2023-03-04T07:55:06.855Z,9.443657
2023-03-04T07:56:06.857Z,9.443521
2023-03-04T07:57:06.854Z,9.443515
2023-03-04T07:58:06.831Z,9.443521
2023-03-04T07:59:06.861Z,9.443554
2023-03-04T08:00:06.832Z,9.443543
2023-03-04T08:01:06.836Z,9.443527
2023-03-04T08:02:06.896Z,9.443561
2023-03-04T08:03:06.813Z,9.443554
2023-03-04T08:04:06.879Z,9.443575
2023-03-04T08:05:06.793Z,9.443596
2023-03-04T08:06:06.784Z,9.443591
2023-03-04T08:07:06.809Z,9.443646
2023-03-04T08:08:06.777Z,9.443618
2023-03-04T08:09:06.832Z,9.443635
2023-03-04T08:10:06.759Z,9.443592
2023-03-04T08:11:06.778Z,9.443640
2023-03-04T08:12:06.756Z,9.443656
2023-03-04T08:13:06.763Z,9.443667
2023-03-04T08:14:06.731Z,9.443683
2023-03-04T08:15:06.721Z,9.443669
2023-03-04T08:16:06.743Z,9.443732
2023-03-04T08:17:07.702Z,9.443706
2023-03-04T08:18:06.746Z,9.443685
2023-03-04T08:19:07.606Z,9.443650
2023-03-04T08:20:06.695Z,9.443673
2023-03-04T08:21:06.678Z,9.443784
2023-03-04T08:22:06.693Z,9.443655
2023-03-04T08:23:06.672Z,9.443794
2023-03-04T08:24:09.706Z,9.443710
2023-03-04T08:25:07.839Z,9.443641
2023-03-04T08:26:06.668Z,9.443752
2023-03-04T08:27:06.662Z,9.443734
2023-03-04T08:28:06.630Z,9.443711
2023-03-04T08:29:06.649Z,9.443706
2023-03-04T08:30:06.623Z,9.443682
2023-03-04T08:31:06.669Z,9.443688
2023-03-04T08:32:08.870Z,9.443759
2023-03-04T08:33:06.676Z,9.443666
2023-03-04T08:34:06.600Z,9.443641
2023-03-04T08:35:06.608Z,9.443666
2023-03-04T08:36:06.589Z,9.443707
2023-03-04T08:37:06.602Z,9.443701
2023-03-04T08:38:06.583Z,9.443757
2023-03-04T08:39:06.589Z,9.443816
2023-03-04T08:40:06.578Z,9.443802
2023-03-04T08:41:06.572Z,9.443761
2023-03-04T08:42:06.556Z,9.443775
2023-03-04T08:43:06.546Z,9.443753
2023-03-04T08:44:06.536Z,9.443782
2023-03-04T08:45:06.545Z,9.443774
2023-03-04T08:46:06.586Z,9.443758
2023-03-04T08:47:06.525Z,9.443743
2023-03-04T08:48:06.523Z,9.443733
2023-03-04T08:49:06.515Z,9.443729
2023-03-04T08:50:06.518Z,9.443737
2023-03-04T08:51:06.522Z,9.443785
2023-03-04T08:52:06.506Z,9.443753
2023-03-04T08:53:06.496Z,9.443717
2023-03-04T08:54:06.478Z,9.443766
2023-03-04T08:55:06.486Z,9.443782
2023-03-04T08:56:06.480Z,9.443736
2023-03-04T08:57:06.462Z,9.443715
2023-03-04T08:58:06.463Z,9.443720
2023-03-04T08:59:06.462Z,9.443769
2023-03-04T09:00:06.488Z,9.443628
2023-03-04T09:01:06.464Z,9.443712
2023-03-04T09:02:06.499Z,9.443704
2023-03-04T09:03:06.436Z,9.443702
2023-03-04T09:04:06.426Z,9.443717
2023-03-04T09:05:06.431Z,9.443740
2023-03-04T09:06:06.418Z,9.443815
2023-03-04T09:07:06.414Z,9.443770
2023-03-04T09:08:06.408Z,9.443691
2023-03-04T09:09:06.420Z,9.443766
2023-03-04T09:10:07.709Z,9.443714
2023-03-04T09:11:06.409Z,9.443692
2023-03-04T09:12:06.390Z,9.443735
2023-03-04T09:13:07.378Z,9.443744
2023-03-04T09:14:06.420Z,9.443722
2023-03-04T09:15:11.416Z,9.443686
2023-03-04T09:16:08.643Z,9.443758
2023-03-04T09:17:06.373Z,9.443800
2023-03-04T09:18:07.224Z,9.443863
2023-03-04T09:19:06.341Z,9.443747
2023-03-04T09:20:06.333Z,9.443675
2023-03-04T09:21:06.334Z,9.443502
2023-03-04T09:22:06.326Z,9.443644
2023-03-04T09:23:06.314Z,9.443715
2023-03-04T09:24:06.302Z,9.443756
2023-03-04T09:25:08.913Z,9.443789
2023-03-04T09:26:07.301Z,9.443797
2023-03-04T09:27:06.304Z,9.443767
2023-03-04T09:28:06.300Z,9.443767
2023-03-04T09:29:06.280Z,9.443790
2023-03-04T09:30:06.279Z,9.443748
2023-03-04T09:31:06.267Z,9.443794
2023-03-04T09:32:06.346Z,9.443778
2023-03-04T09:33:06.240Z,9.443777
2023-03-04T09:34:06.257Z,9.443788
2023-03-04T09:35:06.236Z,9.443781
2023-03-04T09:36:07.235Z,9.443794
2023-03-04T09:37:06.226Z,9.443755
2023-03-04T09:38:06.225Z,9.443739
2023-03-04T09:39:06.228Z,9.443838
2023-03-04T09:40:06.226Z,9.443806
2023-03-04T09:41:06.264Z,9.443815
2023-03-04T09:42:06.232Z,9.443784
2023-03-04T09:43:06.226Z,9.443803
2023-03-04T09:44:06.199Z,9.443804
2023-03-04T09:45:06.391Z,9.443797
2023-03-04T09:46:06.173Z,9.443810
2023-03-04T09:47:06.187Z,9.443786
2023-03-04T09:48:06.175Z,9.443783
2023-03-04T09:49:07.548Z,9.443808
2023-03-04T09:50:07.175Z,9.443746
2023-03-04T09:51:06.205Z,9.443769
2023-03-04T09:52:06.180Z,9.443833
2023-03-04T09:53:06.141Z,9.443789
2023-03-04T09:54:07.100Z,9.443774
2023-03-04T09:55:07.114Z,9.443768
2023-03-04T09:56:06.124Z,9.443806
2023-03-04T09:57:06.125Z,9.443805
2023-03-04T09:58:06.140Z,9.443807
2023-03-04T09:59:06.092Z,9.443817
2023-03-04T10:00:06.091Z,9.443801
2023-03-04T10:01:06.107Z,9.443797
2023-03-04T10:02:06.071Z,9.443758
2023-03-04T10:03:06.084Z,9.443761
2023-03-04T10:04:06.080Z,9.443758
2023-03-04T10:05:06.078Z,9.443726
2023-03-04T10:06:06.050Z,9.443737
2023-03-04T10:07:06.433Z,9.443785
2023-03-04T10:08:07.100Z,9.443742
2023-03-04T10:09:06.022Z,9.443761
2023-03-04T10:10:06.021Z,9.443769
2023-03-04T10:11:06.022Z,9.443742
2023-03-04T10:12:06.019Z,9.443756
2023-03-04T10:13:06.014Z,9.443805
2023-03-04T10:14:06.027Z,9.443781
2023-03-04T10:15:05.992Z,9.443641
2023-03-04T10:16:06.049Z,9.443713
2023-03-04T10:17:05.992Z,9.443741
2023-03-04T10:18:05.974Z,9.443791
2023-03-04T10:19:05.991Z,9.443806
2023-03-04T10:20:05.966Z,9.443780
2023-03-04T10:21:05.956Z,9.443761
2023-03-04T10:22:05.951Z,9.443698
2023-03-04T10:23:05.968Z,9.443691
2023-03-04T10:24:05.937Z,9.443781
2023-03-04T10:25:05.931Z,9.443761
2023-03-04T10:26:05.932Z,9.443738
2023-03-04T10:27:05.925Z,9.443686
2023-03-04T10:28:05.988Z,9.443621
2023-03-04T10:29:05.909Z,9.443668
2023-03-04T10:30:05.921Z,9.443727
2023-03-04T10:31:06.014Z,9.443722
2023-03-04T10:32:05.943Z,9.443740
2023-03-04T10:33:05.946Z,9.443738
2023-03-04T10:34:06.654Z,9.443714
2023-03-04T10:35:07.268Z,9.443682
2023-03-04T10:36:06.045Z,9.443662
2023-03-04T10:37:06.885Z,9.443783
2023-03-04T10:38:05.864Z,9.443732
2023-03-04T10:39:06.817Z,9.443819
2023-03-04T10:40:05.829Z,9.443742
2023-03-04T10:41:05.948Z,9.443698
2023-03-04T10:42:05.899Z,9.443686
2023-03-04T10:43:05.818Z,9.443697
2023-03-04T10:44:05.807Z,9.443675
2023-03-04T10:45:05.805Z,9.443738
2023-03-04T10:46:05.904Z,9.443666
2023-03-04T10:47:05.782Z,9.443715
2023-03-04T10:48:05.793Z,9.443721
2023-03-04T10:49:05.831Z,9.443703
2023-03-04T10:50:06.798Z,9.443669
2023-03-04T10:51:05.763Z,9.443613
2023-03-04T10:52:05.763Z,9.443718
2023-03-04T10:53:05.750Z,9.443734
2023-03-04T10:54:05.753Z,9.443548
2023-03-04T10:55:05.776Z,9.443554
2023-03-04T10:56:05.735Z,9.443691
2023-03-04T10:57:05.732Z,9.443718
2023-03-04T10:58:05.767Z,9.443677
2023-03-04T10:59:05.739Z,9.443658
2023-03-04T11:00:05.703Z,9.443657
2023-03-04T11:01:05.815Z,9.443642
2023-03-04T11:02:05.702Z,9.443677
2023-03-04T11:03:05.727Z,9.443681
2023-03-04T11:04:05.713Z,9.443564
2023-03-04T11:05:05.688Z,9.443607
2023-03-04T11:06:05.680Z,9.443722
2023-03-04T11:07:05.666Z,9.443707
2023-03-04T11:08:05.673Z,9.443810
2023-03-04T11:09:05.668Z,9.443719
2023-03-04T11:10:05.657Z,9.443651
2023-03-04T11:11:05.649Z,9.443510
2023-03-04T11:12:05.651Z,9.443492
2023-03-04T11:13:05.640Z,9.443633
2023-03-04T11:14:05.632Z,9.443655
2023-03-04T11:15:05.614Z,9.443700
2023-03-04T11:16:05.611Z,9.443635
2023-03-04T11:17:05.601Z,9.443701
2023-03-04T11:18:05.598Z,9.443691
2023-03-04T11:19:05.653Z,9.443680
2023-03-04T11:20:05.604Z,9.443686
2023-03-04T11:21:05.592Z,9.443705
2023-03-04T11:22:05.707Z,9.443690
2023-03-04T11:23:05.576Z,9.443564
2023-03-04T11:24:06.267Z,9.443631
2023-03-04T11:25:05.561Z,9.443800
2023-03-04T11:26:05.549Z,9.443770
2023-03-04T11:27:05.542Z,9.443704
2023-03-04T11:28:05.530Z,9.443722
2023-03-04T11:29:05.545Z,9.443823
2023-03-04T11:30:05.535Z,9.443767
2023-03-04T11:31:05.524Z,9.443786
2023-03-04T11:32:05.676Z,9.443684
2023-03-04T11:33:05.509Z,9.443624
2023-03-04T11:34:05.507Z,9.443702
2023-03-04T11:35:05.497Z,9.443749
2023-03-04T11:36:05.491Z,9.443631
2023-03-04T11:37:05.562Z,9.443596
2023-03-04T11:38:05.485Z,9.443567
2023-03-04T11:39:05.543Z,9.443645
2023-03-04T11:40:05.485Z,9.443613
2023-03-04T11:41:05.484Z,9.443535
2023-03-04T11:42:06.486Z,9.443607
2023-03-04T11:43:05.467Z,9.443665
2023-03-04T11:44:05.475Z,9.443611
2023-03-04T11:45:05.485Z,9.443632
2023-03-04T11:46:05.540Z,9.443647
2023-03-04T11:47:05.456Z,9.443620
2023-03-04T11:48:05.494Z,9.443650
2023-03-04T11:49:05.440Z,9.443688
2023-03-04T11:50:05.443Z,9.443613
2023-03-04T11:51:05.455Z,9.443626
2023-03-04T11:52:05.424Z,9.443503
2023-03-04T11:53:05.431Z,9.443458
2023-03-04T11:54:05.425Z,9.443486
2023-03-04T11:55:05.429Z,9.443580
2023-03-04T11:56:05.410Z,9.443666
2023-03-04T11:57:05.458Z,9.443685
2023-03-04T11:58:05.410Z,9.443699
2023-03-04T11:59:05.403Z,9.443699
2023-03-04T12:00:05.405Z,9.443677
2023-03-04T12:01:05.385Z,9.443708
2023-03-04T12:02:05.379Z,9.443665
2023-03-04T12:03:05.388Z,9.443673
2023-03-04T12:04:05.452Z,9.443708
2023-03-04T12:05:05.371Z,9.443758
2023-03-04T12:06:05.355Z,9.443725
2023-03-04T12:07:06.354Z,9.443698
2023-03-04T12:08:05.374Z,9.443651
2023-03-04T12:09:05.374Z,9.443735
2023-03-04T12:10:05.330Z,9.443698
2023-03-04T12:11:05.327Z,9.443727
2023-03-04T12:12:05.383Z,9.443693
2023-03-04T12:13:05.310Z,9.443684
2023-03-04T12:14:05.337Z,9.443628
2023-03-04T12:15:05.301Z,9.443695
2023-03-04T12:16:05.421Z,9.443681
2023-03-04T12:17:05.305Z,9.443695
2023-03-04T12:18:05.289Z,9.443675
2023-03-04T12:19:05.274Z,9.443668
2023-03-04T12:20:05.405Z,9.443735
2023-03-04T12:21:05.264Z,9.443636
2023-03-04T12:22:05.267Z,9.443700
2023-03-04T12:23:06.098Z,9.443706
2023-03-04T12:24:05.249Z,9.443784
2023-03-04T12:25:05.288Z,9.443821
2023-03-04T12:26:05.247Z,9.443851
2023-03-04T12:27:05.235Z,9.443743
2023-03-04T12:28:05.226Z,9.443893
2023-03-04T12:29:05.215Z,9.443783
2023-03-04T12:30:05.221Z,9.443715
2023-03-04T12:31:05.280Z,9.443669
2023-03-04T12:32:05.222Z,9.443657
2023-03-04T12:33:05.287Z,9.443659
2023-03-04T12:34:05.186Z,9.443707
2023-03-04T12:35:05.177Z,9.443734
2023-03-04T12:36:05.193Z,9.443776
2023-03-04T12:37:05.196Z,9.443729
2023-03-04T12:38:05.275Z,9.443741
2023-03-04T12:39:05.156Z,9.443740
2023-03-04T12:40:05.171Z,9.443752
2023-03-04T12:41:05.154Z,9.443717
2023-03-04T12:42:05.141Z,9.443682
2023-03-04T12:43:05.133Z,9.443615
2023-03-04T12:44:05.132Z,9.443673
2023-03-04T12:45:05.121Z,9.443661
2023-03-04T12:46:05.174Z,9.443674
2023-03-04T12:47:05.113Z,9.443742
2023-03-04T12:48:05.132Z,9.443731
2023-03-04T12:49:05.109Z,9.443659
2023-03-04T12:50:05.089Z,9.443572
2023-03-04T12:51:05.102Z,9.443666
2023-03-04T12:52:05.112Z,9.443668
2023-03-04T12:53:05.099Z,9.443692
2023-03-04T12:54:05.061Z,9.443711
2023-03-04T12:55:05.061Z,9.443710
2023-03-04T12:56:05.053Z,9.443639
2023-03-04T12:57:05.070Z,9.443629
2023-03-04T12:58:05.045Z,9.443697
2023-03-04T12:59:05.056Z,9.443673
2023-03-04T13:00:05.049Z,9.443665
2023-03-04T13:01:05.022Z,9.443697
2023-03-04T13:02:06.932Z,9.443703
2023-03-04T13:03:06.151Z,9.443672
2023-03-04T13:04:06.008Z,9.443703
2023-03-04T13:05:05.020Z,9.443650
2023-03-04T13:06:05.017Z,9.443522
2023-03-04T13:07:04.997Z,9.443616
2023-03-04T13:08:05.012Z,9.443592
2023-03-04T13:09:04.982Z,9.443504
2023-03-04T13:10:05.006Z,9.443633
2023-03-04T13:11:04.970Z,9.443892
2023-03-04T13:12:04.976Z,9.443957
2023-03-04T13:13:04.961Z,9.443949
2023-03-04T13:14:04.979Z,9.444138
2023-03-04T13:15:04.945Z,9.444040
2023-03-04T13:16:04.960Z,9.444088
2023-03-04T13:17:04.933Z,9.444006
2023-03-04T13:18:04.951Z,9.444147
2023-03-04T13:19:04.916Z,9.444377
2023-03-04T13:20:04.925Z,9.444361
2023-03-04T13:21:04.960Z,9.444209
2023-03-04T13:22:04.899Z,9.444026
2023-03-04T13:23:05.015Z,9.443712
2023-03-04T13:24:04.890Z,9.443607
2023-03-04T13:25:04.888Z,9.443718
2023-03-04T13:26:04.874Z,9.443735
2023-03-04T13:27:04.873Z,9.443836
2023-03-04T13:28:04.915Z,9.443898
2023-03-04T13:29:04.862Z,9.443865
2023-03-04T13:30:04.876Z,9.443857
2023-03-04T13:31:04.866Z,9.443836
2023-03-04T13:32:04.859Z,9.443757
2023-03-04T13:33:04.845Z,9.443901
2023-03-04T13:34:04.830Z,9.443711
2023-03-04T13:35:05.849Z,9.443682
2023-03-04T13:36:04.821Z,9.443690
2023-03-04T13:37:04.820Z,9.443718
2023-03-04T13:38:05.036Z,9.443687
2023-03-04T13:39:05.800Z,9.443692
2023-03-04T13:40:04.788Z,9.443712
2023-03-04T13:41:04.785Z,9.443705
2023-03-04T13:42:04.783Z,9.443705
2023-03-04T13:43:04.770Z,9.443695
2023-03-04T13:44:04.765Z,9.443674
2023-03-04T13:45:04.766Z,9.443692
2023-03-04T13:46:04.773Z,9.443703
2023-03-04T13:47:04.753Z,9.443714
2023-03-04T13:48:04.775Z,9.443734
2023-03-04T13:49:04.773Z,9.443724
2023-03-04T13:50:04.737Z,9.443711
2023-03-04T13:51:04.734Z,9.443661